sensor_id;sensor_type;location;lat;lon;timestamp;temperature;humidity
814;DHT22;389;48.710;9.392;2022-09-09T00:00:25;13.80;99.90
814;DHT22;389;48.710;9.392;2022-09-09T00:05:32;13.80;99.90
814;DHT22;389;48.710;9.392;2022-09-09T00:08:03;13.80;99.90
814;DHT22;389;48.710;9.392;2022-09-09T00:10:37;13.80;99.90
814;DHT22;389;48.710;9.392;2022-09-09T00:13:25;13.80;99.90
814;DHT22;389;48.710;9.392;2022-09-09T00:18:55;13.70;99.90
814;DHT22;389;48.710;9.392;2022-09-09T00:21:52;13.70;99.90
814;DHT22;389;48.710;9.392;2022-09-09T00:24:55;13.60;99.90
814;DHT22;389;48.710;9.392;2022-09-09T00:30:02;13.70;99.90
814;DHT22;389;48.710;9.392;2022-09-09T00:32:29;13.60;99.90
814;DHT22;389;48.710;9.392;2022-09-09T00:35:14;13.60;99.90
814;DHT22;389;48.710;9.392;2022-09-09T00:37:42;13.60;99.90
814;DHT22;389;48.710;9.392;2022-09-09T00:40:22;13.70;99.90
814;DHT22;389;48.710;9.392;2022-09-09T00:42:54;13.60;99.90
814;DHT22;389;48.710;9.392;2022-09-09T00:48:06;13.60;99.90
814;DHT22;389;48.710;9.392;2022-09-09T00:50:55;13.70;99.90
814;DHT22;389;48.710;9.392;2022-09-09T00:53:51;13.70;99.90
814;DHT22;389;48.710;9.392;2022-09-09T00:56:27;13.80;99.90
814;DHT22;389;48.710;9.392;2022-09-09T00:59:12;13.80;99.90
814;DHT22;389;48.710;9.392;2022-09-09T01:01:41;13.90;99.90
814;DHT22;389;48.710;9.392;2022-09-09T01:04:13;14.10;99.90
814;DHT22;389;48.710;9.392;2022-09-09T01:06:41;14.00;99.90
814;DHT22;389;48.710;9.392;2022-09-09T01:17:12;14.20;99.90
814;DHT22;389;48.710;9.392;2022-09-09T01:27:53;14.20;99.90
814;DHT22;389;48.710;9.392;2022-09-09T01:30:21;14.20;99.90
814;DHT22;389;48.710;9.392;2022-09-09T01:32:55;14.20;99.90
814;DHT22;389;48.710;9.392;2022-09-09T01:35:37;14.20;99.90
814;DHT22;389;48.710;9.392;2022-09-09T01:38:05;14.20;99.90
814;DHT22;389;48.710;9.392;2022-09-09T01:40:31;14.20;99.90
814;DHT22;389;48.710;9.392;2022-09-09T01:42:57;14.10;99.90
814;DHT22;389;48.710;9.392;2022-09-09T01:45:23;14.10;99.90
814;DHT22;389;48.710;9.392;2022-09-09T01:47:51;14.00;99.90
814;DHT22;389;48.710;9.392;2022-09-09T01:50:17;14.10;99.90
814;DHT22;389;48.710;9.392;2022-09-09T01:52:49;14.00;99.90
814;DHT22;389;48.710;9.392;2022-09-09T01:55:15;13.90;99.90
814;DHT22;389;48.710;9.392;2022-09-09T02:00:34;13.80;99.90
814;DHT22;389;48.710;9.392;2022-09-09T02:03:07;13.80;99.90
814;DHT22;389;48.710;9.392;2022-09-09T02:05:49;13.80;99.90
814;DHT22;389;48.710;9.392;2022-09-09T02:08:23;13.70;99.90
814;DHT22;389;48.710;9.392;2022-09-09T02:13:35;13.60;99.90
814;DHT22;389;48.710;9.392;2022-09-09T02:16:18;13.70;99.90
814;DHT22;389;48.710;9.392;2022-09-09T02:21:16;13.60;99.90
814;DHT22;389;48.710;9.392;2022-09-09T02:23:43;13.70;99.90
814;DHT22;389;48.710;9.392;2022-09-09T02:26:12;13.60;99.90
814;DHT22;389;48.710;9.392;2022-09-09T02:28:46;13.50;99.90
814;DHT22;389;48.710;9.392;2022-09-09T02:31:13;13.50;99.90
814;DHT22;389;48.710;9.392;2022-09-09T02:33:44;13.50;99.90
814;DHT22;389;48.710;9.392;2022-09-09T02:36:12;13.40;99.90
814;DHT22;389;48.710;9.392;2022-09-09T02:38:45;13.40;99.90
814;DHT22;389;48.710;9.392;2022-09-09T02:41:11;13.50;99.90
814;DHT22;389;48.710;9.392;2022-09-09T02:43:37;13.30;99.90
814;DHT22;389;48.710;9.392;2022-09-09T02:46:44;13.30;99.90
814;DHT22;389;48.710;9.392;2022-09-09T02:49:09;13.30;99.90
814;DHT22;389;48.710;9.392;2022-09-09T02:52:02;13.20;99.90
814;DHT22;389;48.710;9.392;2022-09-09T02:54:32;13.20;99.90
814;DHT22;389;48.710;9.392;2022-09-09T02:59:36;13.10;99.90
814;DHT22;389;48.710;9.392;2022-09-09T03:02:02;13.20;99.90
814;DHT22;389;48.710;9.392;2022-09-09T03:04:28;13.00;99.90
814;DHT22;389;48.710;9.392;2022-09-09T03:06:54;13.00;99.90
814;DHT22;389;48.710;9.392;2022-09-09T03:09:19;12.90;99.90
814;DHT22;389;48.710;9.392;2022-09-09T03:11:45;12.90;99.90
814;DHT22;389;48.710;9.392;2022-09-09T03:14:11;12.90;99.90
814;DHT22;389;48.710;9.392;2022-09-09T03:16:36;13.00;99.90
814;DHT22;389;48.710;9.392;2022-09-09T03:19:02;12.80;99.90
814;DHT22;389;48.710;9.392;2022-09-09T03:21:28;12.80;99.90
814;DHT22;389;48.710;9.392;2022-09-09T03:23:54;12.80;99.90
814;DHT22;389;48.710;9.392;2022-09-09T03:26:19;12.80;99.90
814;DHT22;389;48.710;9.392;2022-09-09T03:28:45;12.90;99.90
814;DHT22;389;48.710;9.392;2022-09-09T03:31:11;12.90;99.90
814;DHT22;389;48.710;9.392;2022-09-09T03:33:37;13.00;99.90
814;DHT22;389;48.710;9.392;2022-09-09T03:36:04;13.00;99.90
814;DHT22;389;48.710;9.392;2022-09-09T03:38:29;13.10;99.90
814;DHT22;389;48.710;9.392;2022-09-09T03:40:56;13.20;99.90
814;DHT22;389;48.710;9.392;2022-09-09T03:43:23;13.20;99.90
814;DHT22;389;48.710;9.392;2022-09-09T03:45:49;13.20;99.90
814;DHT22;389;48.710;9.392;2022-09-09T03:48:17;13.30;99.90
814;DHT22;389;48.710;9.392;2022-09-09T03:50:50;13.30;99.90
814;DHT22;389;48.710;9.392;2022-09-09T03:53:18;13.50;99.90
814;DHT22;389;48.710;9.392;2022-09-09T03:55:49;13.30;99.90
814;DHT22;389;48.710;9.392;2022-09-09T03:58:16;13.30;99.90
814;DHT22;389;48.710;9.392;2022-09-09T04:00:56;13.40;99.90
814;DHT22;389;48.710;9.392;2022-09-09T04:03:23;13.40;99.90
814;DHT22;389;48.710;9.392;2022-09-09T04:05:53;13.40;99.90
814;DHT22;389;48.710;9.392;2022-09-09T04:08:22;13.40;99.90
814;DHT22;389;48.710;9.392;2022-09-09T04:10:50;13.40;99.90
814;DHT22;389;48.710;9.392;2022-09-09T04:13:17;13.40;99.90
814;DHT22;389;48.710;9.392;2022-09-09T04:15:44;13.40;99.90
814;DHT22;389;48.710;9.392;2022-09-09T04:18:15;13.40;99.90
814;DHT22;389;48.710;9.392;2022-09-09T04:20:40;13.40;99.90
814;DHT22;389;48.710;9.392;2022-09-09T04:23:08;13.40;99.90
814;DHT22;389;48.710;9.392;2022-09-09T04:25:34;13.40;99.90
814;DHT22;389;48.710;9.392;2022-09-09T04:28:00;13.50;99.90
814;DHT22;389;48.710;9.392;2022-09-09T04:30:25;13.50;99.90
814;DHT22;389;48.710;9.392;2022-09-09T04:32:52;13.50;99.90
814;DHT22;389;48.710;9.392;2022-09-09T04:35:18;13.50;99.90
814;DHT22;389;48.710;9.392;2022-09-09T04:37:45;13.50;99.90
814;DHT22;389;48.710;9.392;2022-09-09T04:40:11;13.50;99.90
814;DHT22;389;48.710;9.392;2022-09-09T04:42:37;13.50;99.90
814;DHT22;389;48.710;9.392;2022-09-09T04:45:03;13.50;99.90
814;DHT22;389;48.710;9.392;2022-09-09T04:47:28;13.50;99.90
814;DHT22;389;48.710;9.392;2022-09-09T04:49:54;13.60;99.90
814;DHT22;389;48.710;9.392;2022-09-09T04:52:20;13.50;99.90
814;DHT22;389;48.710;9.392;2022-09-09T04:54:46;13.50;99.90
814;DHT22;389;48.710;9.392;2022-09-09T04:57:12;13.50;99.90
814;DHT22;389;48.710;9.392;2022-09-09T04:59:37;13.60;99.90
814;DHT22;389;48.710;9.392;2022-09-09T05:02:04;13.60;99.90
814;DHT22;389;48.710;9.392;2022-09-09T05:04:30;13.60;99.90
814;DHT22;389;48.710;9.392;2022-09-09T05:06:56;13.60;99.90
814;DHT22;389;48.710;9.392;2022-09-09T05:09:21;13.70;99.90
814;DHT22;389;48.710;9.392;2022-09-09T05:11:47;13.70;99.90
814;DHT22;389;48.710;9.392;2022-09-09T05:14:13;13.70;99.90
814;DHT22;389;48.710;9.392;2022-09-09T05:16:40;13.90;99.90
814;DHT22;389;48.710;9.392;2022-09-09T05:19:06;13.80;99.90
814;DHT22;389;48.710;9.392;2022-09-09T05:21:33;13.80;99.90
814;DHT22;389;48.710;9.392;2022-09-09T05:23:59;13.80;99.90
814;DHT22;389;48.710;9.392;2022-09-09T05:26:26;13.80;99.90
814;DHT22;389;48.710;9.392;2022-09-09T05:28:51;13.80;99.90
814;DHT22;389;48.710;9.392;2022-09-09T05:31:18;13.80;99.90
814;DHT22;389;48.710;9.392;2022-09-09T05:33:46;13.80;99.90
814;DHT22;389;48.710;9.392;2022-09-09T05:36:14;13.80;99.90
814;DHT22;389;48.710;9.392;2022-09-09T05:38:40;13.90;99.90
814;DHT22;389;48.710;9.392;2022-09-09T05:41:07;14.00;99.90
814;DHT22;389;48.710;9.392;2022-09-09T05:43:33;14.20;99.90
814;DHT22;389;48.710;9.392;2022-09-09T05:46:09;14.50;99.90
814;DHT22;389;48.710;9.392;2022-09-09T05:48:37;14.80;99.90
814;DHT22;389;48.710;9.392;2022-09-09T05:51:04;15.00;99.90
814;DHT22;389;48.710;9.392;2022-09-09T05:53:32;15.20;99.90
814;DHT22;389;48.710;9.392;2022-09-09T05:56:20;15.40;99.90
814;DHT22;389;48.710;9.392;2022-09-09T05:58:47;15.90;99.90
814;DHT22;389;48.710;9.392;2022-09-09T06:01:18;16.00;99.90
814;DHT22;389;48.710;9.392;2022-09-09T06:03:45;16.30;99.90
814;DHT22;389;48.710;9.392;2022-09-09T06:06:13;16.50;99.90
814;DHT22;389;48.710;9.392;2022-09-09T06:08:41;16.50;99.90
814;DHT22;389;48.710;9.392;2022-09-09T06:11:11;16.60;99.90
814;DHT22;389;48.710;9.392;2022-09-09T06:13:38;16.80;99.90
814;DHT22;389;48.710;9.392;2022-09-09T06:16:12;16.70;99.90
814;DHT22;389;48.710;9.392;2022-09-09T06:18:38;16.60;99.00
814;DHT22;389;48.710;9.392;2022-09-09T06:21:14;16.80;99.10
814;DHT22;389;48.710;9.392;2022-09-09T06:23:40;16.80;99.40
814;DHT22;389;48.710;9.392;2022-09-09T06:26:07;16.60;99.20
814;DHT22;389;48.710;9.392;2022-09-09T06:28:33;16.70;99.30
814;DHT22;389;48.710;9.392;2022-09-09T06:31:00;16.80;99.30
814;DHT22;389;48.710;9.392;2022-09-09T06:33:30;16.80;99.20
814;DHT22;389;48.710;9.392;2022-09-09T06:35:55;16.90;99.30
814;DHT22;389;48.710;9.392;2022-09-09T06:38:22;17.00;99.20
814;DHT22;389;48.710;9.392;2022-09-09T06:40:56;17.00;98.60
814;DHT22;389;48.710;9.392;2022-09-09T06:43:23;17.10;98.60
814;DHT22;389;48.710;9.392;2022-09-09T06:46:00;17.20;98.20
814;DHT22;389;48.710;9.392;2022-09-09T06:48:26;17.30;97.90
814;DHT22;389;48.710;9.392;2022-09-09T06:51:29;17.40;97.90
814;DHT22;389;48.710;9.392;2022-09-09T06:53:57;17.60;97.70
814;DHT22;389;48.710;9.392;2022-09-09T06:56:30;17.70;97.70
814;DHT22;389;48.710;9.392;2022-09-09T06:58:59;17.80;97.60
814;DHT22;389;48.710;9.392;2022-09-09T07:01:28;17.90;97.10
814;DHT22;389;48.710;9.392;2022-09-09T07:03:55;18.10;96.60
814;DHT22;389;48.710;9.392;2022-09-09T07:06:23;18.20;96.50
814;DHT22;389;48.710;9.392;2022-09-09T07:09:09;18.40;95.90
814;DHT22;389;48.710;9.392;2022-09-09T07:11:46;18.50;95.50
814;DHT22;389;48.710;9.392;2022-09-09T07:14:13;18.60;95.30
814;DHT22;389;48.710;9.392;2022-09-09T07:16:40;18.80;95.40
814;DHT22;389;48.710;9.392;2022-09-09T07:19:07;19.10;94.80
814;DHT22;389;48.710;9.392;2022-09-09T07:21:33;19.30;94.70
814;DHT22;389;48.710;9.392;2022-09-09T07:23:59;19.40;94.50
814;DHT22;389;48.710;9.392;2022-09-09T07:26:29;19.60;93.80
814;DHT22;389;48.710;9.392;2022-09-09T07:28:56;19.70;93.60
814;DHT22;389;48.710;9.392;2022-09-09T07:31:28;20.00;93.70
814;DHT22;389;48.710;9.392;2022-09-09T07:33:55;20.30;93.40
814;DHT22;389;48.710;9.392;2022-09-09T07:36:27;20.50;93.00
814;DHT22;389;48.710;9.392;2022-09-09T07:38:56;20.70;92.50
814;DHT22;389;48.710;9.392;2022-09-09T07:41:25;20.90;92.10
814;DHT22;389;48.710;9.392;2022-09-09T07:43:51;21.10;91.70
814;DHT22;389;48.710;9.392;2022-09-09T07:46:21;21.20;91.60
814;DHT22;389;48.710;9.392;2022-09-09T07:48:57;21.40;91.50
814;DHT22;389;48.710;9.392;2022-09-09T07:51:26;21.50;91.20
814;DHT22;389;48.710;9.392;2022-09-09T07:53:56;21.60;90.90
814;DHT22;389;48.710;9.392;2022-09-09T07:56:24;21.80;91.00
814;DHT22;389;48.710;9.392;2022-09-09T07:58:53;21.60;91.00
814;DHT22;389;48.710;9.392;2022-09-09T08:01:23;21.70;91.30
814;DHT22;389;48.710;9.392;2022-09-09T08:03:54;21.80;91.40
814;DHT22;389;48.710;9.392;2022-09-09T08:06:20;21.90;91.40
814;DHT22;389;48.710;9.392;2022-09-09T08:08:50;22.00;91.40
814;DHT22;389;48.710;9.392;2022-09-09T08:11:16;22.00;91.00
814;DHT22;389;48.710;9.392;2022-09-09T08:13:42;22.00;90.90
814;DHT22;389;48.710;9.392;2022-09-09T08:18:35;22.00;91.30
814;DHT22;389;48.710;9.392;2022-09-09T08:21:12;22.00;91.50
814;DHT22;389;48.710;9.392;2022-09-09T08:23:42;22.00;91.50
814;DHT22;389;48.710;9.392;2022-09-09T08:26:20;22.10;91.70
814;DHT22;389;48.710;9.392;2022-09-09T08:28:50;22.30;91.40
814;DHT22;389;48.710;9.392;2022-09-09T08:31:19;22.50;91.20
814;DHT22;389;48.710;9.392;2022-09-09T08:33:45;22.50;90.50
814;DHT22;389;48.710;9.392;2022-09-09T08:36:19;22.50;90.30
814;DHT22;389;48.710;9.392;2022-09-09T08:38:52;22.70;90.40
814;DHT22;389;48.710;9.392;2022-09-09T08:50:13;22.80;89.30
814;DHT22;389;48.710;9.392;2022-09-09T08:52:53;22.80;88.90
814;DHT22;389;48.710;9.392;2022-09-09T08:55:41;22.90;89.90
814;DHT22;389;48.710;9.392;2022-09-09T08:58:15;23.00;89.70
814;DHT22;389;48.710;9.392;2022-09-09T09:00:53;22.90;88.20
814;DHT22;389;48.710;9.392;2022-09-09T09:09:06;22.80;87.70
814;DHT22;389;48.710;9.392;2022-09-09T09:11:39;22.80;87.30
814;DHT22;389;48.710;9.392;2022-09-09T09:14:35;22.80;88.10
814;DHT22;389;48.710;9.392;2022-09-09T09:17:06;23.00;87.30
814;DHT22;389;48.710;9.392;2022-09-09T09:19:34;22.90;86.00
814;DHT22;389;48.710;9.392;2022-09-09T09:22:06;23.00;87.60
814;DHT22;389;48.710;9.392;2022-09-09T09:27:43;23.10;86.70
814;DHT22;389;48.710;9.392;2022-09-09T09:30:23;23.10;85.10
814;DHT22;389;48.710;9.392;2022-09-09T09:32:56;23.10;85.80
814;DHT22;389;48.710;9.392;2022-09-09T09:35:23;23.30;86.00
814;DHT22;389;48.710;9.392;2022-09-09T09:37:49;23.20;85.80
814;DHT22;389;48.710;9.392;2022-09-09T09:40:20;23.40;85.60
814;DHT22;389;48.710;9.392;2022-09-09T09:42:55;23.50;85.30
814;DHT22;389;48.710;9.392;2022-09-09T09:45:41;23.70;84.90
814;DHT22;389;48.710;9.392;2022-09-09T09:48:12;23.90;84.30
814;DHT22;389;48.710;9.392;2022-09-09T09:53:32;24.30;81.80
814;DHT22;389;48.710;9.392;2022-09-09T09:56:09;24.50;80.70
814;DHT22;389;48.710;9.392;2022-09-09T10:01:25;24.50;74.70
814;DHT22;389;48.710;9.392;2022-09-09T10:03:54;24.40;73.80
814;DHT22;389;48.710;9.392;2022-09-09T10:06:34;24.30;68.70
814;DHT22;389;48.710;9.392;2022-09-09T10:09:02;24.00;68.00
814;DHT22;389;48.710;9.392;2022-09-09T10:14:22;23.50;67.50
814;DHT22;389;48.710;9.392;2022-09-09T10:19:36;23.20;69.00
814;DHT22;389;48.710;9.392;2022-09-09T10:22:27;23.10;68.80
814;DHT22;389;48.710;9.392;2022-09-09T10:25:27;23.10;69.60
814;DHT22;389;48.710;9.392;2022-09-09T10:31:00;23.10;72.10
814;DHT22;389;48.710;9.392;2022-09-09T10:33:50;23.10;72.90
814;DHT22;389;48.710;9.392;2022-09-09T10:36:22;23.20;73.60
814;DHT22;389;48.710;9.392;2022-09-09T10:39:44;23.20;74.80
814;DHT22;389;48.710;9.392;2022-09-09T10:42:12;23.30;76.60
814;DHT22;389;48.710;9.392;2022-09-09T10:47:40;23.60;77.20
814;DHT22;389;48.710;9.392;2022-09-09T10:55:43;24.10;73.90
814;DHT22;389;48.710;9.392;2022-09-09T10:58:20;24.30;74.20
814;DHT22;389;48.710;9.392;2022-09-09T11:00:57;24.50;73.40
814;DHT22;389;48.710;9.392;2022-09-09T11:03:27;24.60;73.10
814;DHT22;389;48.710;9.392;2022-09-09T11:06:09;24.80;72.70
814;DHT22;389;48.710;9.392;2022-09-09T11:08:39;24.90;71.40
814;DHT22;389;48.710;9.392;2022-09-09T11:13:42;25.40;70.40
814;DHT22;389;48.710;9.392;2022-09-09T11:19:09;25.70;67.00
814;DHT22;389;48.710;9.392;2022-09-09T11:21:47;25.80;66.90
814;DHT22;389;48.710;9.392;2022-09-09T11:24:21;25.90;67.30
814;DHT22;389;48.710;9.392;2022-09-09T11:27:40;26.00;67.10
814;DHT22;389;48.710;9.392;2022-09-09T11:30:02;26.10;65.60
814;DHT22;389;48.710;9.392;2022-09-09T11:32:54;26.20;66.30
814;DHT22;389;48.710;9.392;2022-09-09T11:35:53;26.30;66.00
814;DHT22;389;48.710;9.392;2022-09-09T11:41:06;25.90;78.50
814;DHT22;389;48.710;9.392;2022-09-09T11:43:43;25.40;79.50
814;DHT22;389;48.710;9.392;2022-09-09T11:46:10;24.60;81.00
814;DHT22;389;48.710;9.392;2022-09-09T11:48:41;23.90;82.60
814;DHT22;389;48.710;9.392;2022-09-09T11:59:06;22.40;88.70
814;DHT22;389;48.710;9.392;2022-09-09T12:01:48;22.30;90.70
814;DHT22;389;48.710;9.392;2022-09-09T12:04:46;22.10;90.50
814;DHT22;389;48.710;9.392;2022-09-09T12:07:34;22.10;90.60
814;DHT22;389;48.710;9.392;2022-09-09T12:10:25;22.30;91.60
814;DHT22;389;48.710;9.392;2022-09-09T12:12:52;22.40;89.10
814;DHT22;389;48.710;9.392;2022-09-09T12:15:27;22.40;88.50
814;DHT22;389;48.710;9.392;2022-09-09T12:17:58;22.50;86.70
814;DHT22;389;48.710;9.392;2022-09-09T12:24:20;22.20;84.90
814;DHT22;389;48.710;9.392;2022-09-09T12:27:15;22.10;85.70
814;DHT22;389;48.710;9.392;2022-09-09T12:30:04;22.10;85.20
814;DHT22;389;48.710;9.392;2022-09-09T12:32:30;22.10;85.80
814;DHT22;389;48.710;9.392;2022-09-09T12:35:25;22.00;82.70
814;DHT22;389;48.710;9.392;2022-09-09T12:38:52;22.10;83.70
814;DHT22;389;48.710;9.392;2022-09-09T12:44:33;22.40;80.00
814;DHT22;389;48.710;9.392;2022-09-09T12:47:03;22.50;81.50
814;DHT22;389;48.710;9.392;2022-09-09T12:49:41;22.60;79.90
814;DHT22;389;48.710;9.392;2022-09-09T12:52:29;22.70;75.20
814;DHT22;389;48.710;9.392;2022-09-09T12:55:05;22.80;74.00
814;DHT22;389;48.710;9.392;2022-09-09T12:57:36;22.90;74.30
814;DHT22;389;48.710;9.392;2022-09-09T13:00:28;23.10;74.40
814;DHT22;389;48.710;9.392;2022-09-09T13:02:58;23.30;74.50
814;DHT22;389;48.710;9.392;2022-09-09T13:29:20;25.10;68.40
814;DHT22;389;48.710;9.392;2022-09-09T13:31:48;25.30;68.10
814;DHT22;389;48.710;9.392;2022-09-09T13:34:32;25.30;68.10
814;DHT22;389;48.710;9.392;2022-09-09T13:37:06;25.30;66.90
814;DHT22;389;48.710;9.392;2022-09-09T13:39:34;25.20;66.80
814;DHT22;389;48.710;9.392;2022-09-09T13:42:01;25.20;66.00
814;DHT22;389;48.710;9.392;2022-09-09T13:44:38;25.20;66.40
814;DHT22;389;48.710;9.392;2022-09-09T13:47:18;25.40;66.00
814;DHT22;389;48.710;9.392;2022-09-09T13:49:47;25.30;67.40
814;DHT22;389;48.710;9.392;2022-09-09T13:52:16;25.50;66.70
814;DHT22;389;48.710;9.392;2022-09-09T13:54:46;25.70;64.10
814;DHT22;389;48.710;9.392;2022-09-09T13:57:21;25.80;65.40
814;DHT22;389;48.710;9.392;2022-09-09T13:59:51;25.80;63.00
814;DHT22;389;48.710;9.392;2022-09-09T14:02:26;25.80;62.30
814;DHT22;389;48.710;9.392;2022-09-09T14:04:52;25.80;64.60
814;DHT22;389;48.710;9.392;2022-09-09T14:07:27;25.60;64.80
814;DHT22;389;48.710;9.392;2022-09-09T14:09:52;25.50;65.60
814;DHT22;389;48.710;9.392;2022-09-09T14:12:38;25.40;66.40
814;DHT22;389;48.710;9.392;2022-09-09T14:15:06;25.30;66.50
814;DHT22;389;48.710;9.392;2022-09-09T14:17:32;25.30;66.10
814;DHT22;389;48.710;9.392;2022-09-09T14:20:05;25.30;63.70
814;DHT22;389;48.710;9.392;2022-09-09T14:22:36;25.30;62.90
814;DHT22;389;48.710;9.392;2022-09-09T14:25:15;25.20;62.00
814;DHT22;389;48.710;9.392;2022-09-09T14:27:45;25.10;62.00
814;DHT22;389;48.710;9.392;2022-09-09T14:30:25;24.90;62.20
814;DHT22;389;48.710;9.392;2022-09-09T14:36:14;24.80;63.20
814;DHT22;389;48.710;9.392;2022-09-09T14:38:40;24.80;64.40
814;DHT22;389;48.710;9.392;2022-09-09T14:41:10;24.80;64.70
814;DHT22;389;48.710;9.392;2022-09-09T14:43:40;24.80;63.60
814;DHT22;389;48.710;9.392;2022-09-09T14:46:07;24.80;62.60
814;DHT22;389;48.710;9.392;2022-09-09T14:48:33;24.90;62.80
814;DHT22;389;48.710;9.392;2022-09-09T14:51:10;25.00;63.10
814;DHT22;389;48.710;9.392;2022-09-09T14:53:36;25.10;61.80
814;DHT22;389;48.710;9.392;2022-09-09T14:56:11;25.20;61.90
814;DHT22;389;48.710;9.392;2022-09-09T14:58:37;25.30;61.00
814;DHT22;389;48.710;9.392;2022-09-09T15:01:14;25.30;61.10
814;DHT22;389;48.710;9.392;2022-09-09T15:03:42;25.40;60.90
814;DHT22;389;48.710;9.392;2022-09-09T15:06:13;25.30;59.40
814;DHT22;389;48.710;9.392;2022-09-09T15:08:41;25.30;59.80
814;DHT22;389;48.710;9.392;2022-09-09T15:11:07;25.30;59.60
814;DHT22;389;48.710;9.392;2022-09-09T15:13:34;25.30;58.80
814;DHT22;389;48.710;9.392;2022-09-09T15:16:15;25.30;58.50
814;DHT22;389;48.710;9.392;2022-09-09T15:18:41;25.20;58.90
814;DHT22;389;48.710;9.392;2022-09-09T15:21:19;25.10;58.70
814;DHT22;389;48.710;9.392;2022-09-09T15:23:45;25.00;58.30
814;DHT22;389;48.710;9.392;2022-09-09T15:26:11;24.90;58.70
814;DHT22;389;48.710;9.392;2022-09-09T15:28:39;24.90;59.00
814;DHT22;389;48.710;9.392;2022-09-09T15:33:47;24.80;58.90
814;DHT22;389;48.710;9.392;2022-09-09T15:36:21;24.70;58.50
814;DHT22;389;48.710;9.392;2022-09-09T15:38:48;24.60;59.00
814;DHT22;389;48.710;9.392;2022-09-09T15:41:14;24.50;59.20
814;DHT22;389;48.710;9.392;2022-09-09T15:43:45;24.40;58.90
814;DHT22;389;48.710;9.392;2022-09-09T15:48:44;24.50;59.70
814;DHT22;389;48.710;9.392;2022-09-09T15:51:10;24.60;60.00
814;DHT22;389;48.710;9.392;2022-09-09T15:53:37;24.70;59.90
814;DHT22;389;48.710;9.392;2022-09-09T15:56:05;24.60;59.60
814;DHT22;389;48.710;9.392;2022-09-09T15:58:34;24.50;59.80
814;DHT22;389;48.710;9.392;2022-09-09T16:01:08;24.40;60.00
814;DHT22;389;48.710;9.392;2022-09-09T16:03:41;24.20;60.60
814;DHT22;389;48.710;9.392;2022-09-09T16:06:08;24.10;61.40
814;DHT22;389;48.710;9.392;2022-09-09T16:08:37;24.00;61.60
814;DHT22;389;48.710;9.392;2022-09-09T16:11:14;23.80;61.70
814;DHT22;389;48.710;9.392;2022-09-09T16:13:44;23.60;61.20
814;DHT22;389;48.710;9.392;2022-09-09T16:16:11;23.50;61.50
814;DHT22;389;48.710;9.392;2022-09-09T16:18:42;23.40;61.70
814;DHT22;389;48.710;9.392;2022-09-09T16:21:18;23.20;61.90
814;DHT22;389;48.710;9.392;2022-09-09T16:23:44;23.10;62.20
814;DHT22;389;48.710;9.392;2022-09-09T16:26:13;23.10;62.80
814;DHT22;389;48.710;9.392;2022-09-09T16:28:40;22.90;62.90
814;DHT22;389;48.710;9.392;2022-09-09T16:31:35;22.90;62.80
814;DHT22;389;48.710;9.392;2022-09-09T16:34:01;22.80;62.30
814;DHT22;389;48.710;9.392;2022-09-09T16:36:30;22.70;62.10
814;DHT22;389;48.710;9.392;2022-09-09T16:38:59;22.60;61.70
814;DHT22;389;48.710;9.392;2022-09-09T16:41:26;22.60;62.40
814;DHT22;389;48.710;9.392;2022-09-09T16:43:59;22.60;63.20
814;DHT22;389;48.710;9.392;2022-09-09T16:46:27;22.50;62.90
814;DHT22;389;48.710;9.392;2022-09-09T16:48:53;22.50;63.40
814;DHT22;389;48.710;9.392;2022-09-09T16:51:26;22.60;64.10
814;DHT22;389;48.710;9.392;2022-09-09T16:53:53;22.50;64.70
814;DHT22;389;48.710;9.392;2022-09-09T16:56:23;22.50;64.60
814;DHT22;389;48.710;9.392;2022-09-09T16:58:54;22.40;64.70
814;DHT22;389;48.710;9.392;2022-09-09T17:01:28;22.40;65.10
814;DHT22;389;48.710;9.392;2022-09-09T17:03:58;22.30;65.30
814;DHT22;389;48.710;9.392;2022-09-09T17:06:24;22.30;65.50
814;DHT22;389;48.710;9.392;2022-09-09T17:08:55;22.30;66.20
814;DHT22;389;48.710;9.392;2022-09-09T17:11:21;22.30;66.00
814;DHT22;389;48.710;9.392;2022-09-09T17:13:49;22.00;65.80
814;DHT22;389;48.710;9.392;2022-09-09T17:16:17;22.10;66.50
814;DHT22;389;48.710;9.392;2022-09-09T17:18:43;22.00;66.10
814;DHT22;389;48.710;9.392;2022-09-09T17:21:17;21.90;66.70
814;DHT22;389;48.710;9.392;2022-09-09T17:23:44;21.80;66.40
814;DHT22;389;48.710;9.392;2022-09-09T17:26:13;21.80;66.40
814;DHT22;389;48.710;9.392;2022-09-09T17:28:40;21.60;66.70
814;DHT22;389;48.710;9.392;2022-09-09T17:31:08;21.50;67.30
814;DHT22;389;48.710;9.392;2022-09-09T17:33:37;21.40;68.20
814;DHT22;389;48.710;9.392;2022-09-09T17:36:15;21.30;68.20
814;DHT22;389;48.710;9.392;2022-09-09T17:38:41;21.30;68.70
814;DHT22;389;48.710;9.392;2022-09-09T17:41:30;20.90;69.40
814;DHT22;389;48.710;9.392;2022-09-09T17:43:56;21.00;69.30
814;DHT22;389;48.710;9.392;2022-09-09T17:46:28;20.90;70.00
814;DHT22;389;48.710;9.392;2022-09-09T17:48:59;20.80;70.10
814;DHT22;389;48.710;9.392;2022-09-09T17:51:27;20.70;70.40
814;DHT22;389;48.710;9.392;2022-09-09T17:53:57;20.60;71.00
814;DHT22;389;48.710;9.392;2022-09-09T17:56:28;20.40;71.30
814;DHT22;389;48.710;9.392;2022-09-09T17:58:56;20.40;71.80
814;DHT22;389;48.710;9.392;2022-09-09T18:01:30;20.20;72.10
814;DHT22;389;48.710;9.392;2022-09-09T18:03:58;20.10;72.20
814;DHT22;389;48.710;9.392;2022-09-09T18:06:27;20.20;72.70
814;DHT22;389;48.710;9.392;2022-09-09T18:08:55;19.90;73.00
814;DHT22;389;48.710;9.392;2022-09-09T18:11:24;19.90;73.50
814;DHT22;389;48.710;9.392;2022-09-09T18:13:56;20.00;73.80
814;DHT22;389;48.710;9.392;2022-09-09T18:16:28;19.90;74.10
814;DHT22;389;48.710;9.392;2022-09-09T18:18:55;19.80;74.00
814;DHT22;389;48.710;9.392;2022-09-09T18:21:22;19.80;74.30
814;DHT22;389;48.710;9.392;2022-09-09T18:23:50;19.70;74.60
814;DHT22;389;48.710;9.392;2022-09-09T18:26:22;19.70;75.20
814;DHT22;389;48.710;9.392;2022-09-09T18:28:50;19.60;75.70
814;DHT22;389;48.710;9.392;2022-09-09T18:31:18;19.50;76.70
814;DHT22;389;48.710;9.392;2022-09-09T18:33:46;19.40;77.60
814;DHT22;389;48.710;9.392;2022-09-09T18:36:19;19.30;78.00
814;DHT22;389;48.710;9.392;2022-09-09T18:38:45;19.20;78.20
814;DHT22;389;48.710;9.392;2022-09-09T18:41:16;19.20;78.90
814;DHT22;389;48.710;9.392;2022-09-09T18:43:43;19.10;79.70
814;DHT22;389;48.710;9.392;2022-09-09T18:46:10;19.10;80.20
814;DHT22;389;48.710;9.392;2022-09-09T18:48:37;19.00;80.60
814;DHT22;389;48.710;9.392;2022-09-09T18:51:08;19.00;81.10
814;DHT22;389;48.710;9.392;2022-09-09T18:53:35;18.90;81.60
814;DHT22;389;48.710;9.392;2022-09-09T18:56:03;18.90;81.90
814;DHT22;389;48.710;9.392;2022-09-09T18:58:29;18.80;82.20
814;DHT22;389;48.710;9.392;2022-09-09T19:00:57;18.70;82.70
814;DHT22;389;48.710;9.392;2022-09-09T19:03:24;18.70;84.10
814;DHT22;389;48.710;9.392;2022-09-09T19:05:50;18.70;84.90
814;DHT22;389;48.710;9.392;2022-09-09T19:08:19;18.70;85.60
814;DHT22;389;48.710;9.392;2022-09-09T19:10:46;18.70;86.20
814;DHT22;389;48.710;9.392;2022-09-09T19:13:12;18.60;86.50
814;DHT22;389;48.710;9.392;2022-09-09T19:15:39;18.50;86.70
814;DHT22;389;48.710;9.392;2022-09-09T19:18:05;18.50;87.30